Time;durP1;ratioP1;P1;durP2;ratioP2;P2;SDS_P1;SDS_P2;PMS_P1;PMS_P2;Temp;Humidity;BMP_temperature;BMP_pressure;BME280_temperature;BME280_humidity;BME280_pressure;Samples;Min_cycle;Max_cycle;Signal;HPM_P1;HPM_P2
2022/09/13 00:00:57;;;;;;;20.38;8.45;;;;;;;15.90;100.00;100841.91;5048079;28;20025;-86
2022/09/13 00:03:23;;;;;;;18.42;8.50;;;;;;;15.92;100.00;100841.78;5039601;28;20417;-86
2022/09/13 00:05:48;;;;;;;21.20;9.00;;;;;;;15.92;100.00;100843.63;5046199;28;20025;-86
2022/09/13 00:08:14;;;;;;;19.38;8.93;;;;;;;15.94;100.00;100850.59;5046230;28;20017;-85
2022/09/13 00:10:41;;;;;;;20.65;8.45;;;;;;;15.93;100.00;100842.63;5032592;28;20049;-85
2022/09/13 00:13:08;;;;;;;22.92;9.27;;;;;;;15.94;100.00;100849.75;5048451;28;20475;-86
2022/09/13 00:15:34;;;;;;;20.05;8.80;;;;;;;15.95;99.08;100846.06;5042883;28;20020;-86
2022/09/13 00:17:59;;;;;;;19.15;8.02;;;;;;;15.98;99.81;100843.88;5049812;28;20036;-86
2022/09/13 00:20:25;;;;;;;21.73;8.80;;;;;;;16.02;100.00;100842.59;5049290;28;20028;-86
2022/09/13 00:22:50;;;;;;;20.27;8.55;;;;;;;16.05;99.94;100831.44;5065217;28;20167;-86
2022/09/13 00:25:16;;;;;;;21.05;8.68;;;;;;;16.07;100.00;100820.44;5049996;28;20512;-86
2022/09/13 00:27:43;;;;;;;20.67;8.88;;;;;;;16.07;100.00;100820.44;5037661;28;20439;-86
2022/09/13 00:30:09;;;;;;;20.13;8.02;;;;;;;16.06;100.00;100838.59;5049355;28;20032;-86
2022/09/13 00:32:34;;;;;;;18.85;8.18;;;;;;;16.05;100.00;100834.16;5049290;28;20392;-86
2022/09/13 00:35:01;;;;;;;19.17;6.75;;;;;;;16.03;100.00;100825.34;5047886;28;20025;-86
2022/09/13 00:37:27;;;;;;;21.17;8.98;;;;;;;16.04;100.00;100829.72;5048079;28;20025;-86
2022/09/13 00:39:52;;;;;;;17.88;7.60;;;;;;;16.04;100.00;100827.00;5046166;28;20222;-86
2022/09/13 00:42:24;;;;;;;19.80;8.65;;;;;;;16.04;100.00;100815.34;5048419;28;20021;-86
2022/09/13 00:44:57;;;;;;;19.02;7.90;;;;;;;16.02;100.00;100810.06;5049198;28;20108;-86
2022/09/13 00:47:47;;;;;;;19.45;9.48;;;;;;;16.05;100.00;100814.34;5043420;28;20029;-86
2022/09/13 00:50:21;;;;;;;20.67;8.82;;;;;;;16.03;100.00;100811.78;5039897;28;20029;-86
2022/09/13 00:53:33;;;;;;;20.15;8.30;;;;;;;16.04;100.00;100802.63;5047418;28;20028;-86
2022/09/13 00:56:04;;;;;;;22.38;8.40;;;;;;;16.07;100.00;100804.19;5042876;28;20041;-86
2022/09/13 00:58:34;;;;;;;21.58;8.77;;;;;;;16.07;100.00;100804.19;5033145;28;20124;-86
2022/09/13 01:01:02;;;;;;;20.73;8.70;;;;;;;16.08;100.00;100795.91;5047741;28;20414;-85
2022/09/13 01:03:30;;;;;;;20.00;8.90;;;;;;;16.08;100.00;100795.06;5043511;28;20101;-85
2022/09/13 01:06:10;;;;;;;20.17;8.40;;;;;;;16.11;100.00;100797.47;5043863;28;20075;-85
2022/09/13 01:08:37;;;;;;;20.25;8.95;;;;;;;16.11;100.00;100800.19;5049377;28;20033;-85
2022/09/13 01:11:10;;;;;;;20.90;9.52;;;;;;;16.12;98.85;100806.44;5045383;28;20564;-85
2022/09/13 01:13:37;;;;;;;21.52;9.20;;;;;;;16.14;97.99;100796.31;5051024;28;20028;-85
2022/09/13 01:16:02;;;;;;;19.58;8.98;;;;;;;16.16;99.18;100788.88;5039851;28;20473;-85
2022/09/13 01:18:28;;;;;;;23.17;9.30;;;;;;;16.18;100.00;100793.16;5052309;28;20017;-85
2022/09/13 01:21:11;;;;;;;20.00;10.00;;;;;;;16.19;100.00;100789.44;5051845;28;20079;-85
2022/09/13 01:23:49;;;;;;;21.35;9.65;;;;;;;16.21;99.82;100797.44;5051712;28;20097;-85
2022/09/13 01:26:30;;;;;;;19.23;9.50;;;;;;;16.21;100.00;100792.00;5051051;28;20459;-85
2022/09/13 01:29:29;;;;;;;21.13;9.93;;;;;;;16.21;99.92;100789.28;5052264;28;20400;-85
2022/09/13 01:32:03;;;;;;;;;;;;;;;16.24;99.01;100791.69;5050210;28;20415;-85
2022/09/13 01:34:53;;;;;;;22.67;9.20;;;;;;;16.19;100.00;100786.72;5039939;28;20014;-85
2022/09/13 01:37:32;;;;;;;19.92;8.77;;;;;;;16.15;100.00;100788.03;5049167;28;20425;-85
2022/09/13 01:40:42;;;;;;;21.27;8.37;;;;;;;16.15;100.00;100787.16;5043103;28;20353;-85
2022/09/13 01:43:32;;;;;;;20.15;9.15;;;;;;;16.12;100.00;100787.47;5041920;28;20057;-85
2022/09/13 01:46:24;;;;;;;20.17;8.75;;;;;;;16.08;100.00;100784.22;5049229;28;20079;-85
2022/09/13 01:49:02;;;;;;;19.52;8.32;;;;;;;16.06;99.74;100784.38;5042174;28;20041;-85
2022/09/13 01:51:35;;;;;;;19.67;7.78;;;;;;;16.06;100.00;100778.94;5046527;28;20064;-85
2022/09/13 01:54:31;;;;;;;21.95;9.35;;;;;;;16.07;100.00;100769.78;5050125;28;20048;-85
2022/09/13 01:57:02;;;;;;;21.05;9.32;;;;;;;16.05;100.00;100776.38;5049657;28;20044;-85
2022/09/13 01:59:51;;;;;;;20.15;8.95;;;;;;;16.06;100.00;100773.53;5050880;28;20074;-85
2022/09/13 02:02:30;;;;;;;21.95;8.48;;;;;;;16.03;100.00;100771.13;5049563;28;20033;-85
2022/09/13 02:05:03;;;;;;;19.05;8.60;;;;;;;16.02;100.00;100777.53;5040894;28;20475;-85
2022/09/13 02:07:40;;;;;;;19.85;8.98;;;;;;;16.01;100.00;100778.53;5051962;28;20399;-85
2022/09/13 02:10:15;;;;;;;19.63;8.32;;;;;;;16.00;100.00;100781.38;5046864;28;20120;-85
2022/09/13 02:12:42;;;;;;;19.38;7.65;;;;;;;15.99;100.00;100780.53;5037953;28;20438;-85
2022/09/13 02:15:14;;;;;;;19.92;8.80;;;;;;;15.98;100.00;100786.97;5048625;28;20052;-85
2022/09/13 02:17:51;;;;;;;20.95;9.02;;;;;;;15.97;100.00;100776.28;5051962;28;20044;-85
2022/09/13 02:20:27;;;;;;;20.00;8.77;;;;;;;15.97;100.00;100778.97;5050509;28;20021;-85
2022/09/13 02:22:58;;;;;;;20.40;8.90;;;;;;;15.98;100.00;100780.69;5046058;28;20028;-85
2022/09/13 02:25:27;;;;;;;20.58;8.95;;;;;;;15.98;100.00;100786.13;5048968;28;20095;-85
2022/09/13 02:27:58;;;;;;;22.10;9.30;;;;;;;15.99;100.00;100783.25;5051106;28;20136;-85
2022/09/13 02:30:25;;;;;;;20.10;9.68;;;;;;;15.97;100.00;100777.09;5048634;28;20055;-85
2022/09/13 02:33:19;;;;;;;24.17;9.48;;;;;;;15.96;100.00;100780.84;5046395;28;20432;-85
2022/09/13 02:35:54;;;;;;;21.73;9.05;;;;;;;15.97;100.00;100795.25;5049745;28;20531;-85
2022/09/13 02:38:27;;;;;;;19.98;8.70;;;;;;;15.96;100.00;100794.41;5050679;28;20111;-85
2022/09/13 02:40:59;;;;;;;20.40;8.30;;;;;;;15.97;100.00;100796.09;5048457;28;20021;-85
2022/09/13 02:43:40;;;;;;;22.75;9.30;;;;;;;15.98;100.00;100800.50;5050014;28;20029;-85
2022/09/13 02:46:24;;;;;;;21.67;8.55;;;;;;;15.98;100.00;100803.22;5045690;28;20536;-85
2022/09/13 02:48:49;;;;;;;19.60;8.65;;;;;;;16.01;100.00;100808.34;5050270;28;20029;-85
2022/09/13 02:51:19;;;;;;;21.27;9.30;;;;;;;16.01;100.00;100805.63;5051311;28;20082;-85
2022/09/13 02:53:54;;;;;;;20.60;8.63;;;;;;;16.04;100.00;100808.03;5044607;28;20029;-85
2022/09/13 02:56:33;;;;;;;19.50;8.68;;;;;;;16.06;100.00;100811.47;5050906;28;20446;-85
2022/09/13 02:59:08;;;;;;;19.50;8.88;;;;;;;16.07;100.00;100804.19;5032832;28;20033;-85
2022/09/13 03:01:36;;;;;;;20.42;9.00;;;;;;;16.09;100.00;100804.88;5046358;28;20025;-85
2022/09/13 03:04:02;;;;;;;19.63;9.15;;;;;;;16.10;100.00;100800.31;5050134;28;20048;-85
2022/09/13 03:06:28;;;;;;;18.88;7.90;;;;;;;16.10;98.98;100795.75;5050948;28;20033;-85
2022/09/13 03:08:57;;;;;;;19.27;8.32;;;;;;;16.14;100.00;100793.59;5048168;28;20043;-85
2022/09/13 03:11:55;;;;;;;23.85;8.73;;;;;;;16.17;100.00;100799.56;5048955;28;20566;-85
2022/09/13 03:14:39;;;;;;;19.73;8.93;;;;;;;16.17;100.00;100802.28;5025856;28;20047;-85
2022/09/13 03:17:08;;;;;;;22.20;7.75;;;;;;;16.16;100.00;100797.84;5036239;28;20086;-85
2022/09/13 03:19:52;;;;;;;19.48;7.35;;;;;;;16.15;100.00;100787.16;5048811;28;20016;-85
2022/09/13 03:22:43;;;;;;;20.10;7.63;;;;;;;16.16;99.20;100797.00;5048380;28;20445;-85
2022/09/13 03:25:48;;;;;;;19.33;7.95;;;;;;;16.17;100.00;100790.59;5037910;28;20029;-85
2022/09/13 03:28:19;;;;;;;21.70;8.55;;;;;;;16.14;100.00;100790.91;5050023;28;20037;-85
2022/09/13 03:31:23;;;;;;;19.85;8.05;;;;;;;16.14;100.00;100791.75;5048116;28;20380;-85
2022/09/13 03:33:54;;;;;;;18.77;7.38;;;;;;;16.11;100.00;100793.91;5046835;28;20543;-85
2022/09/13 03:36:36;;;;;;;18.77;8.40;;;;;;;16.10;100.00;100784.91;5038933;28;20035;-85
2022/09/13 03:39:18;;;;;;;19.35;8.45;;;;;;;16.07;100.00;100786.06;5047495;28;20499;-85
2022/09/13 03:41:51;;;;;;;20.52;8.55;;;;;;;16.03;100.00;100787.38;5048947;28;20118;-85
2022/09/13 03:44:20;;;;;;;19.10;8.30;;;;;;;16.02;100.00;100793.78;5048971;28;20081;-85
2022/09/13 03:46:47;;;;;;;;;;;;;;;16.08;100.00;100786.94;5048165;28;20029;-85
2022/09/13 03:49:16;;;;;;;18.52;7.70;;;;;;;16.02;100.00;100795.66;5048979;28;20328;-85
2022/09/13 03:51:44;;;;;;;19.20;7.38;;;;;;;15.99;100.00;100785.97;5051042;28;20033;-85
2022/09/13 03:54:16;;;;;;;19.27;7.68;;;;;;;15.97;100.00;100771.69;5048528;28;20033;-85
2022/09/13 03:56:42;;;;;;;18.80;7.95;;;;;;;15.99;100.00;100775.13;5045015;28;20037;-85
2022/09/13 03:59:07;;;;;;;18.80;8.00;;;;;;;15.99;100.00;100774.25;5042664;28;20029;-85
2022/09/13 04:01:32;;;;;;;22.58;9.30;;;;;;;15.99;100.00;100780.53;5045856;28;20036;-84
2022/09/13 04:03:58;;;;;;;20.13;8.10;;;;;;;16.01;100.00;100773.09;5036985;28;20087;-84
2022/09/13 04:06:24;;;;;;;19.50;8.20;;;;;;;16.04;100.00;100790.94;5049242;28;20381;-84
2022/09/13 04:08:49;;;;;;;19.58;7.93;;;;;;;16.04;98.75;100782.81;5042357;28;20099;-84
2022/09/13 04:11:14;;;;;;;18.75;8.05;;;;;;;16.08;100.00;100792.34;5030971;28;20462;-84
2022/09/13 04:13:40;;;;;;;19.17;8.57;;;;;;;16.06;98.63;100794.34;5043148;28;20090;-85
2022/09/13 04:16:06;;;;;;;20.65;7.95;;;;;;;16.08;98.63;100797.78;5043048;28;20120;-85
2022/09/13 04:18:32;;;;;;;21.00;8.90;;;;;;;16.11;99.79;100799.34;5033521;28;20017;-85
2022/09/13 04:21:00;;;;;;;20.13;8.98;;;;;;;16.09;98.28;100804.88;5049672;28;20452;-85
2022/09/13 04:23:27;;;;;;;20.63;9.40;;;;;;;16.08;97.79;100800.47;5050039;28;20085;-85
2022/09/13 04:25:53;;;;;;;22.52;8.00;;;;;;;16.07;99.39;100813.16;5049862;28;20155;-85
2022/09/13 04:28:20;;;;;;;18.83;7.78;;;;;;;16.02;99.94;100820.91;5049197;28;20112;-84
2022/09/13 04:30:47;;;;;;;20.15;8.02;;;;;;;15.97;99.43;100816.94;5047071;28;20021;-84
2022/09/13 04:33:13;;;;;;;19.10;8.25;;;;;;;15.91;100.00;100812.94;5050599;28;20161;-84
2022/09/13 04:35:39;;;;;;;19.63;8.60;;;;;;;15.85;99.98;100819.81;5046113;28;20029;-84
2022/09/13 04:38:05;;;;;;;19.63;8.75;;;;;;;15.80;99.81;100823.97;5040076;28;20016;-84
2022/09/13 04:40:30;;;;;;;20.15;8.18;;;;;;;15.76;100.00;100828.81;5049311;28;20083;-84
2022/09/13 04:42:56;;;;;;;19.83;8.43;;;;;;;15.72;99.96;100825.56;5046458;28;20456;-84
2022/09/13 04:45:21;;;;;;;21.00;8.05;;;;;;;15.69;100.00;100833.09;5049249;28;20025;-84
2022/09/13 04:47:54;;;;;;;19.70;8.32;;;;;;;15.67;100.00;100832.41;5050303;28;20041;-84
2022/09/13 04:50:21;;;;;;;19.30;8.05;;;;;;;15.65;100.00;100831.69;5048306;28;20479;-84
2022/09/13 04:52:46;;;;;;;20.40;9.23;;;;;;;15.63;100.00;100826.41;5036992;28;20076;-84
2022/09/13 04:55:13;;;;;;;18.70;8.50;;;;;;;15.62;100.00;100819.28;5043412;28;20579;-84
2022/09/13 04:57:39;;;;;;;19.75;8.93;;;;;;;15.60;100.00;100826.69;5051477;28;20028;-84
2022/09/13 05:00:05;;;;;;;19.35;8.13;;;;;;;15.58;100.00;100823.28;5045706;28;20036;-84
2022/09/13 05:02:30;;;;;;;22.75;8.50;;;;;;;15.61;100.00;100827.53;5047731;28;20029;-84
2022/09/13 05:04:55;;;;;;;21.67;9.77;;;;;;;15.60;100.00;100826.69;5051299;28;20825;-84
2022/09/13 05:07:21;;;;;;;20.95;9.70;;;;;;;15.61;100.00;100817.59;5041703;28;20074;-84
2022/09/13 05:09:46;;;;;;;20.02;8.93;;;;;;;15.63;100.00;100821.00;5049838;28;20052;-84
2022/09/13 05:12:12;;;;;;;19.17;7.82;;;;;;;15.64;100.00;100821.84;5050673;28;20148;-84
2022/09/13 05:14:37;;;;;;;23.10;8.65;;;;;;;15.64;100.00;100822.72;5052163;28;20063;-84
2022/09/13 05:17:02;;;;;;;21.27;9.02;;;;;;;15.64;100.00;100822.72;5048134;28;20039;-84
2022/09/13 05:19:28;;;;;;;21.00;8.23;;;;;;;15.65;100.00;100819.00;5051617;28;20035;-84
2022/09/13 05:21:53;;;;;;;20.17;8.68;;;;;;;15.65;100.00;100818.13;5049448;28;20051;-84
2022/09/13 05:24:18;;;;;;;22.05;9.40;;;;;;;15.67;100.00;100818.84;5042566;28;20020;-84
2022/09/13 05:26:43;;;;;;;21.38;9.10;;;;;;;15.67;100.00;100819.69;5051788;28;20024;-84
2022/09/13 05:29:09;;;;;;;19.25;7.93;;;;;;;15.66;100.00;100817.97;5041461;28;20037;-84
2022/09/13 05:31:37;;;;;;;20.13;8.45;;;;;;;15.69;100.00;100824.97;5050255;28;20029;-84
2022/09/13 05:34:09;;;;;;;20.33;8.35;;;;;;;15.69;100.00;100830.38;5040879;28;20029;-84
2022/09/13 05:36:35;;;;;;;20.90;8.48;;;;;;;15.69;100.00;100825.81;5048271;28;20120;-84
2022/09/13 05:39:02;;;;;;;20.10;8.95;;;;;;;15.69;100.00;100831.22;5034243;28;20037;-84
2022/09/13 05:41:27;;;;;;;18.73;8.65;;;;;;;15.69;100.00;100831.22;5040842;28;20024;-84
2022/09/13 05:43:56;;;;;;;23.08;8.52;;;;;;;15.71;100.00;100845.50;5047147;28;20075;-84
2022/09/13 05:46:22;;;;;;;18.38;8.38;;;;;;;15.70;100.00;100840.25;5038832;28;20033;-84
2022/09/13 05:48:48;;;;;;;21.90;8.50;;;;;;;15.71;100.00;100840.09;5039713;28;20102;-84
2022/09/13 05:51:18;;;;;;;19.83;9.27;;;;;;;15.71;100.00;100845.50;5044643;28;20017;-84
2022/09/13 05:53:45;;;;;;;21.10;9.45;;;;;;;15.74;100.00;100833.53;5034896;28;20029;-84
2022/09/13 05:56:13;;;;;;;22.48;9.25;;;;;;;15.78;100.00;100836.78;5050842;28;20032;-84
2022/09/13 05:58:41;;;;;;;20.40;8.50;;;;;;;15.78;100.00;100836.78;5039387;28;20044;-84
2022/09/13 06:01:08;;;;;;;21.60;8.88;;;;;;;15.82;100.00;100840.94;5037899;28;20048;-84
2022/09/13 06:03:35;;;;;;;22.77;9.40;;;;;;;15.85;100.00;100835.22;5047866;28;20131;-84
2022/09/13 06:06:00;;;;;;;22.15;9.90;;;;;;;15.88;100.00;100834.94;5046769;28;20449;-84
2022/09/13 06:08:28;;;;;;;20.20;8.25;;;;;;;15.90;100.00;100839.22;5045599;28;20040;-85
2022/09/13 06:10:58;;;;;;;21.80;9.82;;;;;;;15.93;100.00;100838.06;5042241;28;20081;-85
2022/09/13 06:13:24;;;;;;;20.70;9.30;;;;;;;15.95;100.00;100832.50;5032538;28;20032;-85
2022/09/13 06:15:50;;;;;;;21.63;9.32;;;;;;;15.99;100.00;100837.47;5041596;28;20161;-85
2022/09/13 06:18:18;;;;;;;21.30;10.18;;;;;;;16.02;100.00;100831.75;5053010;28;20025;-85
2022/09/13 06:20:44;;;;;;;19.83;9.48;;;;;;;16.06;100.00;100833.16;5053243;28;20017;-85
2022/09/13 06:23:09;;;;;;;22.23;10.20;;;;;;;16.08;100.00;100841.16;5050926;28;20112;-85
2022/09/13 06:25:35;;;;;;;27.13;10.63;;;;;;;16.11;100.00;100840.00;5047709;28;20083;-85
2022/09/13 06:28:00;;;;;;;21.85;10.20;;;;;;;16.15;100.00;100841.38;5049458;28;20021;-85
2022/09/13 06:30:25;;;;;;;22.08;10.25;;;;;;;16.18;100.00;100832.94;5061168;28;20028;-85
2022/09/13 06:32:51;;;;;;;23.17;10.98;;;;;;;16.23;100.00;100830.66;5049974;28;20342;-85
2022/09/13 06:35:16;;;;;;;21.55;9.60;;;;;;;16.25;100.00;100825.94;5052938;28;20484;-85
2022/09/13 06:37:42;;;;;;;22.13;9.63;;;;;;;16.28;100.00;100828.34;5050656;28;20397;-85
2022/09/13 06:40:08;;;;;;;21.63;9.20;;;;;;;16.30;100.00;100823.63;5048829;28;20013;-85
2022/09/13 06:42:34;;;;;;;22.30;10.27;;;;;;;16.32;100.00;100824.31;5048887;28;20071;-85
2022/09/13 06:44:59;;;;;;;23.77;10.85;;;;;;;16.36;100.00;100817.59;5040702;28;20028;-85
2022/09/13 06:47:25;;;;;;;24.02;10.85;;;;;;;16.39;100.00;100821.88;5044756;28;20107;-85
2022/09/13 06:49:50;;;;;;;23.48;12.02;;;;;;;16.42;100.00;100829.72;5039659;28;20029;-85
2022/09/13 06:52:15;;;;;;;22.35;11.27;;;;;;;16.45;100.00;100828.56;5039817;28;20028;-85
2022/09/13 06:54:41;;;;;;;23.88;11.68;;;;;;;16.47;100.00;100834.66;5042648;28;20078;-85
2022/09/13 06:57:06;;;;;;;25.17;12.05;;;;;;;16.49;100.00;100833.53;5033715;28;20060;-85
2022/09/13 06:59:33;;;;;;;23.80;12.15;;;;;;;16.50;100.00;100829.81;5036003;28;20060;-85
2022/09/13 07:01:58;;;;;;;22.00;11.52;;;;;;;16.54;100.00;100830.34;5031516;28;20358;-85
2022/09/13 07:04:24;;;;;;;23.15;11.15;;;;;;;16.57;100.00;100830.03;5036963;28;20107;-85
2022/09/13 07:06:49;;;;;;;26.40;11.88;;;;;;;16.60;100.00;100830.59;5036380;28;20056;-85
2022/09/13 07:09:20;;;;;;;23.75;12.48;;;;;;;16.64;99.74;100828.44;5031673;28;20381;-85
2022/09/13 07:11:54;;;;;;;30.38;13.48;;;;;;;16.69;100.00;100827.97;5035983;28;20109;-85
2022/09/13 07:14:22;;;;;;;24.35;12.70;;;;;;;16.73;99.59;100837.50;5038065;28;20037;-85
2022/09/13 07:16:48;;;;;;;23.52;13.25;;;;;;;16.76;99.62;100837.22;5031917;28;20033;-85
2022/09/13 07:19:16;;;;;;;23.70;13.05;;;;;;;16.80;99.49;100822.31;5039169;28;20058;-85
2022/09/13 07:21:42;;;;;;;25.90;14.57;;;;;;;16.85;99.40;100824.56;5032181;28;20481;-85
2022/09/13 07:24:08;;;;;;;25.48;13.48;;;;;;;16.88;98.80;100827.00;5038180;28;20119;-85
2022/09/13 07:26:34;;;;;;;23.60;13.95;;;;;;;16.91;98.52;100832.13;5036022;28;20022;-85
2022/09/13 07:29:03;;;;;;;24.27;13.73;;;;;;;16.95;99.02;100838.97;5039035;28;20029;-84
2022/09/13 07:31:31;;;;;;;25.23;13.60;;;;;;;17.00;98.90;100842.06;5031689;28;20037;-84
2022/09/13 07:33:59;;;;;;;25.90;14.98;;;;;;;17.03;99.08;100841.75;5041981;28;20479;-84
2022/09/13 07:36:25;;;;;;;25.88;14.48;;;;;;;17.08;98.28;100850.28;5041193;28;20178;-84
2022/09/13 07:38:51;;;;;;;32.33;15.55;;;;;;;17.12;98.13;100851.69;5036594;28;20028;-85
2022/09/13 07:41:19;;;;;;;29.52;16.08;;;;;;;17.18;98.59;100852.09;5038733;28;20582;-85
2022/09/13 07:43:47;;;;;;;25.98;15.45;;;;;;;17.22;97.84;100853.47;5032630;28;20033;-85
2022/09/13 07:46:16;;;;;;;26.08;15.88;;;;;;;17.24;98.21;100849.59;5031621;28;20048;-85
2022/09/13 07:48:43;;;;;;;28.60;16.20;;;;;;;17.29;98.25;100851.81;5048240;28;20420;-85
2022/09/13 07:51:16;;;;;;;29.45;17.60;;;;;;;17.32;97.97;100854.25;5032884;28;20508;-85
2022/09/13 07:53:44;;;;;;;29.85;17.10;;;;;;;17.36;98.15;100849.34;5038928;28;20060;-84
2022/09/13 07:56:12;;;;;;;27.75;16.80;;;;;;;17.40;98.67;100857.03;5037092;28;20034;-84
2022/09/13 07:58:40;;;;;;;28.45;16.08;;;;;;;17.44;98.03;100860.28;5033652;28;20104;-84
2022/09/13 08:01:11;;;;;;;28.00;15.88;;;;;;;17.46;96.27;100866.41;5033770;28;20433;-85
2022/09/13 08:03:36;;;;;;;29.98;19.88;;;;;;;17.49;97.55;100862.53;5059747;28;20037;-85
2022/09/13 08:06:03;;;;;;;31.05;19.67;;;;;;;17.53;98.51;100870.22;5028288;28;20044;-85
2022/09/13 08:08:29;;;;;;;25.50;15.95;;;;;;;17.53;95.97;100874.81;5037497;28;20037;-85
2022/09/13 08:10:55;;;;;;;26.95;18.00;;;;;;;17.58;97.60;100867.84;5029263;28;20041;-84
2022/09/13 08:13:21;;;;;;;28.35;14.10;;;;;;;17.58;91.95;100870.56;5029673;28;20397;-85
2022/09/13 08:15:47;;;;;;;30.80;21.00;;;;;;;17.67;95.70;100868.78;5031239;28;20068;-85
2022/09/13 08:18:12;;;;;;;31.45;21.90;;;;;;;17.76;96.30;100866.97;5029911;28;20020;-84
2022/09/13 08:20:38;;;;;;;34.83;22.83;;;;;;;17.80;96.34;100862.91;5032922;28;20028;-84
2022/09/13 08:23:05;;;;;;;35.60;21.40;;;;;;;17.84;97.03;100871.63;5032743;28;20025;-84
2022/09/13 08:25:34;;;;;;;28.05;13.77;;;;;;;17.80;93.11;100861.06;5040270;28;20048;-84
2022/09/13 08:28:01;;;;;;;27.75;15.98;;;;;;;17.86;93.73;100873.16;5031025;28;20345;-84
2022/09/13 08:30:32;;;;;;;24.70;14.05;;;;;;;17.88;92.01;100873.00;5034670;28;20026;-84
2022/09/13 08:32:59;;;;;;;29.58;18.52;;;;;;;17.90;92.44;100882.72;5035019;28;20029;-84
2022/09/13 08:35:24;;;;;;;21.15;9.52;;;;;;;17.90;88.83;100890.03;5033228;28;20192;-84
2022/09/13 08:37:49;;;;;;;34.80;22.45;;;;;;;17.97;95.01;100882.97;5036348;28;20537;-84
2022/09/13 08:40:15;;;;;;;25.10;15.25;;;;;;;18.00;93.11;100885.34;5033646;28;20053;-84
2022/09/13 08:43:09;;;;;;;31.27;21.75;;;;;;;18.07;94.66;100886.41;5036340;28;20025;-84
2022/09/13 08:45:34;;;;;;;30.08;17.83;;;;;;;18.12;95.16;100897.66;5036223;28;20449;-84
2022/09/13 08:48:17;;;;;;;32.58;22.83;;;;;;;18.20;95.38;100885.13;5037437;28;20654;-84
2022/09/13 08:50:43;;;;;;;24.45;14.00;;;;;;;18.19;91.30;100889.72;5032248;28;20029;-84
2022/09/13 08:53:16;;;;;;;23.67;12.98;;;;;;;18.22;91.64;100888.56;5033174;28;20033;-84
2022/09/13 08:56:09;;;;;;;35.00;24.90;;;;;;;18.36;97.51;100882.50;5029266;28;20040;-84
2022/09/13 08:58:50;;;;;;;35.13;24.55;;;;;;;18.49;96.88;100885.63;5029655;28;20149;-85
2022/09/13 09:01:43;;;;;;;34.58;24.02;;;;;;;18.58;96.72;100881.06;5048464;28;20022;-79
2022/09/13 09:04:17;;;;;;;32.50;23.58;;;;;;;18.66;97.40;100872.06;5027814;28;20048;-79
2022/09/13 09:06:42;;;;;;;34.67;21.35;;;;;;;18.74;95.95;100863.06;5036674;28;20128;-79
2022/09/13 09:09:15;;;;;;;36.00;24.90;;;;;;;18.79;95.93;100867.00;5029375;28;20108;-79
2022/09/13 09:11:47;;;;;;;27.30;17.70;;;;;;;18.78;95.76;100854.38;5035284;28;20098;-79
2022/09/13 09:14:32;;;;;;;32.75;20.17;;;;;;;18.83;95.52;100856.66;5033582;28;20029;-79
2022/09/13 09:17:03;;;;;;;34.80;22.77;;;;;;;18.88;95.36;100850.72;5028095;28;20120;-79
2022/09/13 09:19:29;;;;;;;28.88;20.10;;;;;;;18.88;95.27;100845.28;5037602;28;20102;-80
2022/09/13 09:21:55;;;;;;;34.92;23.83;;;;;;;18.95;95.97;100858.03;5030769;28;20036;-80
2022/09/13 09:24:24;;;;;;;25.50;14.02;;;;;;;18.91;93.77;100856.66;5025852;28;20116;-80
2022/09/13 09:26:56;;;;;;;27.73;14.65;;;;;;;18.95;94.83;100857.22;5040712;28;20400;-80
2022/09/13 09:29:25;;;;;;;20.45;7.88;;;;;;;18.90;92.06;100854.97;5035226;28;20029;-80
2022/09/13 09:31:58;;;;;;;24.85;13.38;;;;;;;18.97;94.88;100860.59;5036966;28;20032;-80
2022/09/13 09:34:41;;;;;;;22.02;9.63;;;;;;;18.99;92.20;100856.69;5037743;28;20857;-81
2022/09/13 09:37:11;;;;;;;30.85;18.15;;;;;;;19.07;94.15;100855.84;5030816;28;20053;-80
2022/09/13 09:39:38;;;;;;;22.05;10.30;;;;;;;19.05;91.61;100863.34;5062433;28;20075;-81
2022/09/13 09:42:16;;;;;;;31.42;19.13;;;;;;;19.13;93.66;100857.06;5033568;28;20767;-81
2022/09/13 09:44:46;;;;;;;20.05;7.75;;;;;;;19.12;90.65;100861.66;5037840;28;20045;-81
2022/09/13 09:47:19;;;;;;;27.05;15.30;;;;;;;19.20;92.56;100858.94;5056035;28;20119;-80
2022/09/13 09:52:50;;;;;;;21.95;11.75;;;;;;;19.25;91.42;100852.97;5043146;28;20079;-81
2022/09/13 09:55:19;;;;;;;25.55;14.23;;;;;;;19.28;90.59;100849.06;5035786;28;20025;-81
2022/09/13 09:57:50;;;;;;;25.13;15.68;;;;;;;19.33;91.15;100852.97;5039678;28;20029;-81
2022/09/13 10:00:16;;;;;;;16.38;6.97;;;;;;;19.32;88.32;100850.44;5044970;28;20113;-81
2022/09/13 10:02:51;;;;;;;16.27;5.85;;;;;;;19.32;87.54;100855.88;5031966;28;20362;-81
2022/09/13 10:05:22;;;;;;;19.63;9.10;;;;;;;19.38;89.22;100856.03;5036207;28;20106;-81
2022/09/13 10:07:53;;;;;;;22.63;13.48;;;;;;;19.50;92.61;100855.69;5042842;28;20028;-87
2022/09/13 10:10:35;;;;;;;26.80;15.93;;;;;;;19.56;90.93;100855.88;5034428;28;20045;-87
2022/09/13 10:13:03;;;;;;;16.67;6.50;;;;;;;19.55;85.20;100845.97;5039908;28;20025;-87
2022/09/13 10:15:33;;;;;;;17.98;6.15;;;;;;;19.55;84.76;100851.44;5033967;28;20433;-87
2022/09/13 10:18:16;;;;;;;25.77;14.68;;;;;;;19.70;93.08;100845.28;5033352;28;20029;-87
2022/09/13 10:20:58;;;;;;;13.52;5.22;;;;;;;19.63;85.23;100849.72;5035920;28;20064;-87
2022/09/13 10:23:23;;;;;;;30.25;16.35;;;;;;;19.79;91.84;100837.97;5030914;28;20435;-87
2022/09/13 10:26:14;;;;;;;26.60;15.90;;;;;;;19.85;91.87;100846.31;5033922;28;20024;-87
2022/09/13 10:29:04;;;;;;;24.05;12.68;;;;;;;19.95;93.05;100843.41;5024824;28;20033;-87
2022/09/13 10:31:35;;;;;;;26.25;15.85;;;;;;;20.10;92.66;100846.25;5031540;28;20052;-87
2022/09/13 10:34:04;;;;;;;29.73;16.98;;;;;;;20.19;91.52;100844.34;5033794;28;20037;-87
2022/09/13 10:36:31;;;;;;;;;;;;;;;20.20;92.29;100849.63;5036113;28;20025;-87
2022/09/13 10:38:58;;;;;;;25.35;14.90;;;;;;;20.23;91.61;100846.53;5038677;28;20265;-87
2022/09/13 10:41:27;;;;;;;21.95;10.52;;;;;;;20.21;91.25;100845.88;5041382;28;20086;-87
2022/09/13 10:43:57;;;;;;;22.02;10.93;;;;;;;20.21;93.66;100847.78;5035771;28;20539;-87
2022/09/13 10:46:23;;;;;;;30.27;13.25;;;;;;;20.27;93.23;100848.94;5042986;28;20480;-75
2022/09/13 10:48:54;;;;;;;24.70;14.27;;;;;;;20.25;92.86;100847.22;5027957;28;20116;-75
2022/09/13 10:51:26;;;;;;;26.45;14.40;;;;;;;20.27;91.42;100849.78;5029803;28;20494;-75
2022/09/13 10:54:24;;;;;;;25.63;13.25;;;;;;;20.32;91.74;100841.06;5041619;28;20130;-75
2022/09/13 10:56:50;;;;;;;24.20;13.38;;;;;;;20.34;91.67;100839.88;5029657;28;20493;-75
2022/09/13 10:59:21;;;;;;;25.80;12.73;;;;;;;20.36;92.39;100828.75;5030344;28;20427;-75
2022/09/13 11:02:05;;;;;;;20.52;10.27;;;;;;;20.36;92.80;100831.50;5050787;28;20029;-75
2022/09/13 11:04:55;;;;;;;20.52;10.13;;;;;;;20.41;92.25;100818.16;5030523;28;20037;-75
2022/09/13 11:07:44;;;;;;;14.65;5.72;;;;;;;20.34;88.70;100828.94;5030324;28;20056;-75
2022/09/13 11:10:23;;;;;;;25.13;14.13;;;;;;;20.35;90.87;100816.13;5027168;28;20049;-76
2022/09/13 11:13:28;;;;;;;15.55;6.35;;;;;;;20.33;86.70;100819.03;5033555;28;20120;-76
2022/09/13 11:16:08;;;;;;;26.60;13.05;;;;;;;20.43;90.59;100821.56;5038242;28;20422;-76
2022/09/13 11:18:59;;;;;;;24.70;13.10;;;;;;;20.57;91.21;100811.75;5029374;28;20540;-76
2022/09/13 11:21:55;;;;;;;22.60;12.20;;;;;;;20.65;91.06;100811.72;5041049;28;20021;-76
2022/09/13 11:24:55;;;;;;;22.73;9.57;;;;;;;20.74;91.03;100810.66;5046039;28;20029;-76
2022/09/13 11:27:53;;;;;;;18.10;7.28;;;;;;;20.74;87.40;100807.94;5023053;28;20040;-76
2022/09/13 11:30:21;;;;;;;15.32;6.88;;;;;;;20.77;83.47;100806.72;5028752;28;20032;-76
2022/09/13 11:33:28;;;;;;;26.20;12.38;;;;;;;20.89;87.05;100808.00;5033391;28;20091;-76
2022/09/13 11:35:54;;;;;;;19.50;9.35;;;;;;;20.94;82.81;100802.84;5029402;28;20442;-76